Time;durP1;ratioP1;P1;durP2;ratioP2;P2;SDS_P1;SDS_P2;PMS_P1;PMS_P2;Temp;Humidity;BMP_temperature;BMP_pressure;BME280_temperature;BME280_humidity;BME280_pressure;Samples;Min_cycle;Max_cycle;Signal;HPM_P1;HPM_P2
2022/06/11 00:01:12;;;;;;;;;1.00;1.00;;;;;;;;5070282;28;45407;-72
2022/06/11 00:03:37;;;;;;;;;1.33;0.00;;;;;;;;5066778;28;45474;-72
2022/06/11 00:06:03;;;;;;;;;2.00;2.00;;;;;;;;5068039;28;47063;-72
2022/06/11 00:08:29;;;;;;;;;2.67;2.00;;;;;;;;5066443;28;45508;-71
2022/06/11 00:10:54;;;;;;;;;1.67;1.67;;;;;;;;5065249;28;45477;-72
2022/06/11 00:13:22;;;;;;;;;1.33;1.33;;;;;;;;5068194;28;51245;-73
2022/06/11 00:15:47;;;;;;;;;1.00;1.00;;;;;;;;5067250;28;47149;-72
2022/06/11 00:18:13;;;;;;;;;3.00;1.00;;;;;;;;5071004;28;45602;-72
2022/06/11 00:20:38;;;;;;;;;3.33;1.33;;;;;;;;5067066;28;45411;-72
2022/06/11 00:23:03;;;;;;;;;2.00;2.00;;;;;;;;5066780;27;45334;-72
2022/06/11 00:25:31;;;;;;;;;1.00;1.00;;;;;;;;5066642;28;47206;-72
2022/06/11 00:27:56;;;;;;;;;1.67;1.00;;;;;;;;5068996;28;45390;-72
2022/06/11 00:30:21;;;;;;;;;1.67;1.67;;;;;;;;5066989;28;45508;-72
2022/06/11 00:32:47;;;;;;;;;1.00;1.00;;;;;;;;5070136;28;45543;-72
2022/06/11 00:35:13;;;;;;;;;0.67;0.67;;;;;;;;5070987;28;46807;-72
2022/06/11 00:37:39;;;;;;;;;3.00;1.67;;;;;;;;5068809;28;45823;-71
2022/06/11 00:40:05;;;;;;;;;1.00;1.00;;;;;;;;5058416;28;45348;-72
2022/06/11 00:42:33;;;;;;;;;0.33;0.00;;;;;;;;5073867;28;45430;-72
2022/06/11 00:45:17;;;;;;;;;1.00;1.00;;;;;;;;5072246;28;46391;-72
2022/06/11 00:47:43;;;;;;;;;1.00;0.67;;;;;;;;5070401;28;45337;-72
2022/06/11 00:50:22;;;;;;;;;1.00;1.00;;;;;;;;5068046;28;45340;-72
2022/06/11 00:52:47;;;;;;;;;0.00;0.00;;;;;;;;5068160;28;45411;-72
2022/06/11 00:55:15;;;;;;;;;2.00;2.00;;;;;;;;5070554;28;47294;-72
2022/06/11 00:58:02;;;;;;;;;0.67;0.67;;;;;;;;5073233;28;45495;-72
2022/06/11 01:00:47;;;;;;;;;2.00;2.00;;;;;;;;5068985;27;45315;-72
2022/06/11 01:03:15;;;;;;;;;2.00;2.00;;;;;;;;5073489;28;45300;-72
2022/06/11 01:05:44;;;;;;;;;4.00;1.33;;;;;;;;5069806;28;45614;-72
2022/06/11 01:08:15;;;;;;;;;2.00;2.00;;;;;;;;5067771;28;45421;-71
2022/06/11 01:10:51;;;;;;;;;2.00;2.00;;;;;;;;5067868;28;45441;-72
2022/06/11 01:13:30;;;;;;;;;1.00;1.00;;;;;;;;5062261;28;45502;-72
2022/06/11 01:15:57;;;;;;;;;2.00;1.00;;;;;;;;5074756;27;46213;-72
2022/06/11 01:18:38;;;;;;;;;1.00;1.00;;;;;;;;5068870;28;45413;-72
2022/06/11 01:21:06;;;;;;;;;1.00;1.00;;;;;;;;5072998;28;45300;-72
2022/06/11 01:23:31;;;;;;;;;1.00;1.00;;;;;;;;5071433;28;45482;-71
2022/06/11 01:26:15;;;;;;;;;1.00;1.00;;;;;;;;5067117;28;46959;-73
2022/06/11 01:29:05;;;;;;;;;0.00;0.00;;;;;;;;5067960;27;45487;-72
2022/06/11 01:31:30;;;;;;;;;2.00;1.00;;;;;;;;5033521;28;45752;-72
2022/06/11 01:33:58;;;;;;;;;1.00;1.00;;;;;;;;5033809;28;45564;-72
2022/06/11 01:36:25;;;;;;;;;1.33;1.33;;;;;;;;5033614;28;46107;-72
2022/06/11 01:38:53;;;;;;;;;1.00;1.00;;;;;;;;5033988;28;45922;-72
2022/06/11 01:41:30;;;;;;;;;0.00;0.00;;;;;;;;5033446;28;45639;-72
2022/06/11 01:43:58;;;;;;;;;3.00;1.33;;;;;;;;5033254;28;45477;-72
2022/06/11 01:46:26;;;;;;;;;1.00;1.00;;;;;;;;5033331;28;46261;-72
2022/06/11 01:48:51;;;;;;;;;2.00;1.00;;;;;;;;5033252;28;45502;-72
2022/06/11 01:51:48;;;;;;;;;1.00;1.00;;;;;;;;5016686;28;45634;-72
2022/06/11 01:54:14;;;;;;;;;0.67;0.67;;;;;;;;4972109;28;45290;-72
2022/06/11 01:56:58;;;;;;;;;1.00;1.00;;;;;;;;4972259;28;46338;-72
2022/06/11 01:59:24;;;;;;;;;1.00;1.00;;;;;;;;4973536;28;45508;-72
2022/06/11 02:01:49;;;;;;;;;3.00;1.00;;;;;;;;4974191;28;45405;-72
2022/06/11 02:04:15;;;;;;;;;1.67;1.67;;;;;;;;4973869;28;45457;-72
2022/06/11 02:06:49;;;;;;;;;2.00;2.00;;;;;;;;4973981;28;46088;-72
2022/06/11 02:09:33;;;;;;;;;3.67;1.00;;;;;;;;5002119;28;45714;-72
2022/06/11 02:12:08;;;;;;;;;2.00;1.00;;;;;;;;5010303;28;45518;-72
2022/06/11 02:14:41;;;;;;;;;0.33;0.33;;;;;;;;5007672;28;45865;-72
2022/06/11 02:17:11;;;;;;;;;1.00;1.00;;;;;;;;5008306;28;46346;-71
2022/06/11 02:19:42;;;;;;;;;0.67;0.67;;;;;;;;5008423;28;45430;-72
2022/06/11 02:22:11;;;;;;;;;1.00;1.00;;;;;;;;5008728;28;45381;-72
2022/06/11 02:24:46;;;;;;;;;2.00;2.00;;;;;;;;5012089;28;45390;-72
2022/06/11 02:27:14;;;;;;;;;1.67;1.67;;;;;;;;5010830;28;46278;-72
2022/06/11 02:29:40;;;;;;;;;0.00;0.00;;;;;;;;5037475;28;45453;-72
2022/06/11 02:32:10;;;;;;;;;2.33;1.00;;;;;;;;5069410;28;45480;-72
2022/06/11 02:34:47;;;;;;;;;1.00;1.00;;;;;;;;5067878;28;45887;-72
2022/06/11 02:37:21;;;;;;;;;3.00;1.00;;;;;;;;5060259;28;46336;-72
2022/06/11 02:39:46;;;;;;;;;0.67;0.67;;;;;;;;5060050;28;45467;-73
2022/06/11 02:42:15;;;;;;;;;3.00;1.33;;;;;;;;5070166;27;45523;-72
2022/06/11 02:44:41;;;;;;;;;2.00;1.00;;;;;;;;5068749;28;45393;-72
2022/06/11 02:47:06;;;;;;;;;1.33;1.00;;;;;;;;5066272;28;46857;-72
2022/06/11 02:49:33;;;;;;;;;0.00;0.00;;;;;;;;5067864;28;45497;-72
2022/06/11 02:52:00;;;;;;;;;1.00;1.00;;;;;;;;5070754;28;45567;-72
2022/06/11 02:54:26;;;;;;;;;1.33;1.00;;;;;;;;5066392;28;45426;-72
2022/06/11 02:56:52;;;;;;;;;1.00;1.00;;;;;;;;5069683;28;46126;-72
2022/06/11 02:59:17;;;;;;;;;1.00;0.67;;;;;;;;5066460;27;45438;-72
2022/06/11 03:01:43;;;;;;;;;1.33;1.00;;;;;;;;5066382;27;45347;-72
2022/06/11 03:04:08;;;;;;;;;1.00;0.00;;;;;;;;5071128;28;45455;-72
2022/06/11 03:06:34;;;;;;;;;0.00;0.00;;;;;;;;5068055;28;46048;-73
2022/06/11 03:09:00;;;;;;;;;1.33;0.33;;;;;;;;5071694;28;45333;-72
2022/06/11 03:11:26;;;;;;;;;1.00;1.00;;;;;;;;5066777;28;45472;-72
2022/06/11 03:13:51;;;;;;;;;0.33;0.33;;;;;;;;5066021;28;45418;-72
2022/06/11 03:16:16;;;;;;;;;0.00;0.00;;;;;;;;5069498;27;45907;-71
2022/06/11 03:18:42;;;;;;;;;0.00;0.00;;;;;;;;5068187;28;45524;-72
2022/06/11 03:21:07;;;;;;;;;0.67;0.67;;;;;;;;5068602;28;45480;-72
2022/06/11 03:23:32;;;;;;;;;1.33;1.00;;;;;;;;5067472;28;45447;-72
2022/06/11 03:25:59;;;;;;;;;1.00;1.00;;;;;;;;5065808;28;45421;-72
2022/06/11 03:28:26;;;;;;;;;0.67;0.67;;;;;;;;5068272;28;45509;-72
2022/06/11 03:30:52;;;;;;;;;0.33;0.33;;;;;;;;5070091;28;45347;-72
2022/06/11 03:33:18;;;;;;;;;1.00;1.00;;;;;;;;5071683;28;45358;-73
2022/06/11 03:35:44;;;;;;;;;2.00;1.00;;;;;;;;5067599;28;46071;-72
2022/06/11 03:38:10;;;;;;;;;2.00;2.00;;;;;;;;5061886;27;45389;-72
2022/06/11 03:40:35;;;;;;;;;1.00;1.00;;;;;;;;5061337;28;45608;-72
2022/06/11 03:43:00;;;;;;;;;2.33;1.33;;;;;;;;5071350;28;45572;-73
2022/06/11 03:45:26;;;;;;;;;1.00;1.00;;;;;;;;5066327;28;45475;-72
2022/06/11 03:47:51;;;;;;;;;2.67;1.67;;;;;;;;5069115;28;45340;-72
2022/06/11 03:50:18;;;;;;;;;1.67;1.67;;;;;;;;5068067;28;45311;-73
2022/06/11 03:52:44;;;;;;;;;2.00;2.00;;;;;;;;5065603;28;45383;-72
2022/06/11 03:55:09;;;;;;;;;0.33;0.33;;;;;;;;5070135;28;46958;-72
2022/06/11 03:57:34;;;;;;;;;0.00;0.00;;;;;;;;5066895;28;45569;-72
2022/06/11 04:00:02;;;;;;;;;0.33;0.33;;;;;;;;5071308;28;45639;-72
2022/06/11 04:02:27;;;;;;;;;0.00;0.00;;;;;;;;5068904;28;45723;-72
2022/06/11 04:04:52;;;;;;;;;2.00;0.00;;;;;;;;5068207;28;46203;-72
2022/06/11 04:07:17;;;;;;;;;1.67;0.00;;;;;;;;5072571;27;45546;-72
2022/06/11 04:09:43;;;;;;;;;1.33;1.33;;;;;;;;5071327;28;45470;-73
2022/06/11 04:12:12;;;;;;;;;2.00;0.00;;;;;;;;5074054;28;45383;-73
2022/06/11 04:14:38;;;;;;;;;0.00;0.00;;;;;;;;5070461;28;46204;-73
2022/06/11 04:17:14;;;;;;;;;1.67;1.67;;;;;;;;5068655;27;45454;-73
2022/06/11 04:19:41;;;;;;;;;1.00;1.00;;;;;;;;5068958;28;45442;-73
2022/06/11 04:22:07;;;;;;;;;1.67;0.67;;;;;;;;5073608;28;45453;-73
2022/06/11 04:24:33;;;;;;;;;0.67;0.67;;;;;;;;5069453;28;47048;-73
2022/06/11 04:27:00;;;;;;;;;0.67;0.67;;;;;;;;5073028;28;45469;-73
2022/06/11 04:29:27;;;;;;;;;0.00;0.00;;;;;;;;5071480;28;46989;-73
2022/06/11 04:31:54;;;;;;;;;0.00;0.00;;;;;;;;5068747;28;45351;-73
2022/06/11 04:34:20;;;;;;;;;1.00;1.00;;;;;;;;5071374;28;46100;-73
2022/06/11 04:36:46;;;;;;;;;0.00;0.00;;;;;;;;5070784;28;48816;-73
2022/06/11 04:39:13;;;;;;;;;0.00;0.00;;;;;;;;5061579;28;45386;-73
2022/06/11 04:41:38;;;;;;;;;0.00;0.00;;;;;;;;5071419;28;45496;-73
2022/06/11 04:44:03;;;;;;;;;1.00;1.00;;;;;;;;5068357;27;46019;-73
2022/06/11 04:46:29;;;;;;;;;0.00;0.00;;;;;;;;5070472;28;45382;-73
2022/06/11 04:48:54;;;;;;;;;2.00;0.67;;;;;;;;5070346;28;45428;-73
2022/06/11 04:51:19;;;;;;;;;1.00;1.00;;;;;;;;5074589;28;45473;-73
2022/06/11 04:53:44;;;;;;;;;0.00;0.00;;;;;;;;5070951;28;47036;-74
2022/06/11 04:56:12;;;;;;;;;0.67;0.67;;;;;;;;5068237;27;45772;-73
2022/06/11 04:58:37;;;;;;;;;2.67;2.00;;;;;;;;5069399;28;45398;-73
2022/06/11 05:01:03;;;;;;;;;1.67;0.00;;;;;;;;5073103;28;45404;-73
2022/06/11 05:03:28;;;;;;;;;0.00;0.00;;;;;;;;5068349;28;48511;-73
2022/06/11 05:05:53;;;;;;;;;0.67;0.67;;;;;;;;5072006;28;45414;-72
2022/06/11 05:08:18;;;;;;;;;1.67;1.00;;;;;;;;5070850;28;45614;-73
2022/06/11 05:10:44;;;;;;;;;1.00;1.00;;;;;;;;5068034;28;45592;-74
2022/06/11 05:13:10;;;;;;;;;1.33;0.67;;;;;;;;5072813;28;46116;-73
2022/06/11 05:15:38;;;;;;;;;2.00;1.00;;;;;;;;5068866;28;45548;-73
2022/06/11 05:18:04;;;;;;;;;0.00;0.00;;;;;;;;5070228;28;45313;-73
2022/06/11 05:20:29;;;;;;;;;3.00;1.33;;;;;;;;5068712;28;45294;-73
2022/06/11 05:22:54;;;;;;;;;1.67;0.67;;;;;;;;5067604;28;46198;-73
2022/06/11 05:25:19;;;;;;;;;1.00;1.00;;;;;;;;5071189;28;45343;-73
2022/06/11 05:27:46;;;;;;;;;0.67;0.00;;;;;;;;5070114;28;45465;-73
2022/06/11 05:30:12;;;;;;;;;1.00;0.33;;;;;;;;5073313;28;45379;-73
2022/06/11 05:32:40;;;;;;;;;0.00;0.00;;;;;;;;5069014;28;46320;-73
2022/06/11 05:35:07;;;;;;;;;0.33;0.00;;;;;;;;5067705;27;45971;-73
2022/06/11 05:37:32;;;;;;;;;1.67;1.67;;;;;;;;5068940;28;45482;-73
2022/06/11 05:39:58;;;;;;;;;0.00;0.00;;;;;;;;5062456;28;45268;-73
2022/06/11 05:42:24;;;;;;;;;0.00;0.00;;;;;;;;5069897;28;45485;-73
2022/06/11 05:44:49;;;;;;;;;1.00;1.00;;;;;;;;5070400;28;45489;-73
2022/06/11 05:47:18;;;;;;;;;2.67;0.00;;;;;;;;5069903;28;45341;-73
2022/06/11 05:49:46;;;;;;;;;1.00;1.00;;;;;;;;5067405;28;45373;-73
2022/06/11 05:52:15;;;;;;;;;0.67;0.67;;;;;;;;5071864;28;45298;-73
2022/06/11 05:54:40;;;;;;;;;1.00;1.00;;;;;;;;5068582;28;45423;-73
2022/06/11 05:57:07;;;;;;;;;1.00;1.00;;;;;;;;5070017;28;45608;-73
2022/06/11 05:59:35;;;;;;;;;0.00;0.00;;;;;;;;5068820;27;45398;-72
2022/06/11 06:02:01;;;;;;;;;0.00;0.00;;;;;;;;5066563;28;46100;-73
2022/06/11 06:04:26;;;;;;;;;0.00;0.00;;;;;;;;5069460;28;45439;-73
2022/06/11 06:06:51;;;;;;;;;0.00;0.00;;;;;;;;5069879;28;45493;-73
2022/06/11 06:09:16;;;;;;;;;2.00;1.00;;;;;;;;5069454;28;45298;-73
2022/06/11 06:11:41;;;;;;;;;1.33;1.00;;;;;;;;5068721;28;46283;-73
2022/06/11 06:14:07;;;;;;;;;0.67;0.67;;;;;;;;5066853;27;45502;-73
2022/06/11 06:16:32;;;;;;;;;2.00;2.00;;;;;;;;5068273;28;45779;-72
2022/06/11 06:18:58;;;;;;;;;2.00;1.00;;;;;;;;5070929;28;45420;-73
2022/06/11 06:21:25;;;;;;;;;2.00;0.00;;;;;;;;5067988;28;46135;-73
2022/06/11 06:23:50;;;;;;;;;1.33;1.00;;;;;;;;5069817;28;45390;-72
2022/06/11 06:26:16;;;;;;;;;2.00;0.00;;;;;;;;5069456;28;45571;-73
2022/06/11 06:28:41;;;;;;;;;1.00;1.00;;;;;;;;5066107;28;45575;-72
2022/06/11 06:31:07;;;;;;;;;1.33;0.00;;;;;;;;5071103;28;46541;-72
2022/06/11 06:33:33;;;;;;;;;0.00;0.00;;;;;;;;5067217;28;45677;-73
2022/06/11 06:35:59;;;;;;;;;0.67;0.00;;;;;;;;5070847;27;45487;-72
2022/06/11 06:38:24;;;;;;;;;0.33;0.33;;;;;;;;5059899;28;45314;-72
2022/06/11 06:40:49;;;;;;;;;1.00;1.00;;;;;;;;5063922;28;45510;-73
2022/06/11 06:43:15;;;;;;;;;2.67;1.00;;;;;;;;5070783;28;45228;-72
2022/06/11 06:45:40;;;;;;;;;1.00;1.00;;;;;;;;5068577;28;45327;-72
2022/06/11 06:48:05;;;;;;;;;1.00;1.00;;;;;;;;5071688;28;45422;-73
2022/06/11 06:50:30;;;;;;;;;2.00;0.33;;;;;;;;5067737;28;45450;-73
2022/06/11 06:52:55;;;;;;;;;0.00;0.00;;;;;;;;5069978;27;45578;-72
2022/06/11 06:55:21;;;;;;;;;0.00;0.00;;;;;;;;5069549;28;45246;-73
2022/06/11 06:57:46;;;;;;;;;4.00;1.00;;;;;;;;5069019;28;45661;-73
2022/06/11 07:00:12;;;;;;;;;2.00;0.00;;;;;;;;5068436;28;46215;-74
2022/06/11 07:02:37;;;;;;;;;1.33;1.00;;;;;;;;5068124;27;45320;-73
2022/06/11 07:05:03;;;;;;;;;0.00;0.00;;;;;;;;5068993;28;45562;-73
2022/06/11 07:07:28;;;;;;;;;0.00;0.00;;;;;;;;5068860;28;45339;-73
2022/06/11 07:09:54;;;;;;;;;0.33;0.33;;;;;;;;5069738;28;46017;-72
2022/06/11 07:12:20;;;;;;;;;0.00;0.00;;;;;;;;5067623;28;45414;-72
2022/06/11 07:14:45;;;;;;;;;0.00;0.00;;;;;;;;5068321;28;45345;-73
2022/06/11 07:17:11;;;;;;;;;1.67;1.00;;;;;;;;5071784;28;45283;-73
2022/06/11 07:19:39;;;;;;;;;0.33;0.33;;;;;;;;5067137;27;46113;-72
2022/06/11 07:22:08;;;;;;;;;0.00;0.00;;;;;;;;5070936;28;45434;-73
2022/06/11 07:24:35;;;;;;;;;1.33;1.00;;;;;;;;5068272;28;45646;-71
2022/06/11 07:27:02;;;;;;;;;1.00;1.00;;;;;;;;5071098;28;45362;-73
2022/06/11 07:29:32;;;;;;;;;2.00;0.00;;;;;;;;5068800;28;47616;-73
2022/06/11 07:32:03;;;;;;;;;0.00;0.00;;;;;;;;5065810;27;45509;-73
2022/06/11 07:34:28;;;;;;;;;1.33;0.00;;;;;;;;5068006;28;45342;-73
2022/06/11 07:36:54;;;;;;;;;0.00;0.00;;;;;;;;5069158;28;45386;-73
2022/06/11 07:39:19;;;;;;;;;1.00;1.00;;;;;;;;5057833;28;46901;-73
2022/06/11 07:41:44;;;;;;;;;1.00;0.67;;;;;;;;5069078;28;45240;-73
2022/06/11 07:44:09;;;;;;;;;1.00;1.00;;;;;;;;5068359;28;45387;-73
2022/06/11 07:46:35;;;;;;;;;2.67;1.00;;;;;;;;5067059;28;45379;-73
2022/06/11 07:49:00;;;;;;;;;0.00;0.00;;;;;;;;5069939;28;46145;-73
2022/06/11 07:51:25;;;;;;;;;1.00;1.00;;;;;;;;5066544;28;45347;-73
2022/06/11 07:53:50;;;;;;;;;0.33;0.00;;;;;;;;5068902;28;45271;-73
2022/06/11 07:56:17;;;;;;;;;3.00;1.00;;;;;;;;5065014;28;45427;-73
2022/06/11 07:58:43;;;;;;;;;0.00;0.00;;;;;;;;5065444;27;46049;-73
2022/06/11 08:01:09;;;;;;;;;2.67;0.00;;;;;;;;5059581;28;45388;-74
2022/06/11 08:03:37;;;;;;;;;2.67;2.00;;;;;;;;5067677;28;45432;-73
2022/06/11 08:06:02;;;;;;;;;1.67;0.00;;;;;;;;5070769;28;45439;-73
2022/06/11 08:08:28;;;;;;;;;1.00;1.00;;;;;;;;5065706;28;46532;-73
2022/06/11 08:10:54;;;;;;;;;1.00;1.00;;;;;;;;5064745;27;45556;-73
2022/06/11 08:13:19;;;;;;;;;2.67;0.67;;;;;;;;5068916;28;45406;-73
2022/06/11 08:15:46;;;;;;;;;0.00;0.00;;;;;;;;5067608;28;45414;-73
2022/06/11 08:18:11;;;;;;;;;2.00;1.00;;;;;;;;5067347;28;46300;-73
2022/06/11 08:20:37;;;;;;;;;1.00;1.00;;;;;;;;5066876;28;45406;-73
2022/06/11 08:23:03;;;;;;;;;0.67;0.00;;;;;;;;5067838;27;45418;-73
2022/06/11 08:25:28;;;;;;;;;0.33;0.00;;;;;;;;5067011;28;45231;-73
2022/06/11 08:27:54;;;;;;;;;0.00;0.00;;;;;;;;5068741;28;46156;-73
2022/06/11 08:30:20;;;;;;;;;3.00;2.00;;;;;;;;5066816;28;45367;-73
2022/06/11 08:32:46;;;;;;;;;2.67;2.00;;;;;;;;5067660;28;45364;-77
2022/06/11 08:35:12;;;;;;;;;3.00;1.33;;;;;;;;5065164;28;46598;-72
2022/06/11 08:37:37;;;;;;;;;3.67;3.67;;;;;;;;5065670;28;47383;-73
2022/06/11 08:40:07;;;;;;;;;7.75;4.50;;;;;;;;5059981;28;45500;-73
2022/06/11 08:42:40;;;;;;;;;5.67;5.67;;;;;;;;5068773;28;45323;-73
2022/06/11 08:45:11;;;;;;;;;6.00;5.33;;;;;;;;5070400;28;45662;-76
2022/06/11 08:47:42;;;;;;;;;4.67;4.33;;;;;;;;5068625;28;46399;-74
2022/06/11 08:50:12;;;;;;;;;7.33;4.67;;;;;;;;5066297;27;45434;-71
2022/06/11 08:52:37;;;;;;;;;5.33;3.33;;;;;;;;5068301;28;45612;-75
2022/06/11 08:55:02;;;;;;;;;7.33;4.67;;;;;;;;5072478;28;45468;-75
2022/06/11 08:57:46;;;;;;;;;3.00;3.00;;;;;;;;5068643;28;46053;-75
2022/06/11 09:00:16;;;;;;;;;4.33;4.33;;;;;;;;5073222;28;45430;-75
2022/06/11 09:02:42;;;;;;;;;4.33;4.33;;;;;;;;5070294;28;45446;-75
2022/06/11 09:05:22;;;;;;;;;6.33;3.00;;;;;;;;5067988;28;45415;-75
2022/06/11 09:07:59;;;;;;;;;4.00;4.00;;;;;;;;5067986;28;47177;-75
2022/06/11 09:10:31;;;;;;;;;3.00;3.00;;;;;;;;5070455;28;45266;-75
2022/06/11 09:12:56;;;;;;;;;5.00;3.00;;;;;;;;5071757;28;45436;-74
2022/06/11 09:15:24;;;;;;;;;2.00;2.00;;;;;;;;5058966;28;45265;-73
2022/06/11 09:17:49;;;;;;;;;3.33;2.33;;;;;;;;5070782;28;46129;-75
2022/06/11 09:20:17;;;;;;;;;2.33;2.33;;;;;;;;5067903;27;45711;-74
2022/06/11 09:22:52;;;;;;;;;2.33;2.00;;;;;;;;5071552;28;45560;-75
2022/06/11 09:25:20;;;;;;;;;1.33;1.00;;;;;;;;5071758;28;45856;-75
2022/06/11 09:27:49;;;;;;;;;2.33;2.33;;;;;;;;5070054;27;46078;-74
2022/06/11 09:30:37;;;;;;;;;4.33;3.00;;;;;;;;5068542;28;46199;-75
2022/06/11 09:33:13;;;;;;;;;2.00;2.00;;;;;;;;5062186;28;45421;-75
2022/06/11 09:35:56;;;;;;;;;2.00;2.00;;;;;;;;5071886;28;45511;-74
2022/06/11 09:38:40;;;;;;;;;3.67;3.67;;;;;;;;5061878;28;46137;-74
2022/06/11 09:41:32;;;;;;;;;4.00;3.33;;;;;;;;5099762;27;45512;-75
2022/06/11 09:43:57;;;;;;;;;2.00;2.00;;;;;;;;5066223;28;45383;-75
2022/06/11 09:46:22;;;;;;;;;3.33;3.33;;;;;;;;5070919;28;45506;-74
2022/06/11 09:49:00;;;;;;;;;3.00;3.00;;;;;;;;5069816;28;46959;-75
2022/06/11 09:51:25;;;;;;;;;4.00;2.67;;;;;;;;5068709;28;45401;-75
2022/06/11 09:54:10;;;;;;;;;2.25;2.00;;;;;;;;5070481;28;45395;-74
2022/06/11 09:56:41;;;;;;;;;3.00;3.00;;;;;;;;5071303;28;45371;-74
2022/06/11 09:59:15;;;;;;;;;3.00;3.00;;;;;;;;5067179;28;47170;-74
2022/06/11 10:01:45;;;;;;;;;5.00;2.00;;;;;;;;5069964;28;45422;-74
2022/06/11 10:04:12;;;;;;;;;3.00;3.00;;;;;;;;5070567;28;45462;-74
2022/06/11 10:06:50;;;;;;;;;3.00;3.00;;;;;;;;5067378;27;45389;-74
2022/06/11 10:09:22;;;;;;;;;2.67;2.67;;;;;;;;5069762;28;47077;-73
2022/06/11 10:11:56;;;;;;;;;3.67;3.67;;;;;;;;5069682;28;45324;-75
2022/06/11 10:14:40;;;;;;;;;8.00;4.67;;;;;;;;5069243;28;45569;-73
2022/06/11 10:17:08;;;;;;;;;5.67;4.33;;;;;;;;5066976;27;45399;-73
2022/06/11 10:19:45;;;;;;;;;7.33;5.67;;;;;;;;5069944;28;46024;-73
2022/06/11 10:22:14;;;;;;;;;5.67;5.67;;;;;;;;5071305;28;45502;-72
2022/06/11 10:24:42;;;;;;;;;5.67;5.67;;;;;;;;5068109;28;45481;-73
2022/06/11 10:27:13;;;;;;;;;13.33;9.33;;;;;;;;5069702;28;45424;-72
2022/06/11 10:29:43;;;;;;;;;6.00;5.25;;;;;;;;5071651;28;46069;-73
2022/06/11 10:32:08;;;;;;;;;5.00;5.00;;;;;;;;5066599;28;45581;-72
2022/06/11 10:34:37;;;;;;;;;9.00;6.67;;;;;;;;5068262;28;45399;-72
2022/06/11 10:37:12;;;;;;;;;6.00;4.33;;;;;;;;5070819;28;45430;-72
2022/06/11 10:39:52;;;;;;;;;3.33;3.00;;;;;;;;5058036;28;46353;-73
2022/06/11 10:42:28;;;;;;;;;4.67;3.00;;;;;;;;5070280;27;45303;-72
2022/06/11 10:44:54;;;;;;;;;4.33;4.33;;;;;;;;5070022;28;45327;-72
2022/06/11 10:47:38;;;;;;;;;5.33;3.67;;;;;;;;5066519;27;45402;-72
2022/06/11 10:50:04;;;;;;;;;4.00;3.00;;;;;;;;5065722;27;46117;-72
2022/06/11 10:52:29;;;;;;;;;3.00;3.00;;;;;;;;5068789;28;45519;-72
2022/06/11 10:54:54;;;;;;;;;4.00;4.00;;;;;;;;5069999;28;45506;-72
2022/06/11 10:57:24;;;;;;;;;2.67;2.67;;;;;;;;5072623;28;45246;-73
2022/06/11 10:59:52;;;;;;;;;4.33;2.67;;;;;;;;5071706;28;45286;-72
2022/06/11 11:02:17;;;;;;;;;5.67;4.00;;;;;;;;5068333;28;45570;-72
2022/06/11 11:04:57;;;;;;;;;3.00;3.00;;;;;;;;5066135;28;45328;-73
2022/06/11 11:07:24;;;;;;;;;3.67;3.00;;;;;;;;5067873;28;45409;-72
2022/06/11 11:09:50;;;;;;;;;3.00;3.00;;;;;;;;5071464;28;45612;-73
2022/06/11 11:12:21;;;;;;;;;2.00;2.00;;;;;;;;5066671;28;45810;-73
2022/06/11 11:14:55;;;;;;;;;3.00;2.00;;;;;;;;5067683;28;45387;-73
2022/06/11 11:17:22;;;;;;;;;2.00;2.00;;;;;;;;5065564;28;45528;-72
2022/06/11 11:22:37;;;;;;;;;3.00;1.00;;;;;;;;5068408;28;45284;-73
2022/06/11 11:25:06;;;;;;;;;2.00;2.00;;;;;;;;5071446;27;45539;-73
2022/06/11 11:27:34;;;;;;;;;2.00;2.00;;;;;;;;5066644;28;45386;-72
2022/06/11 11:30:01;;;;;;;;;3.00;1.33;;;;;;;;5070789;28;47258;-73
2022/06/11 11:32:27;;;;;;;;;2.00;2.00;;;;;;;;5067563;27;45426;-72
2022/06/11 11:34:52;;;;;;;;;2.00;2.00;;;;;;;;5065138;28;45512;-73
2022/06/11 11:37:20;;;;;;;;;2.00;2.00;;;;;;;;5067168;28;45739;-73
2022/06/11 11:39:51;;;;;;;;;5.00;2.33;;;;;;;;5057920;28;46077;-73
2022/06/11 11:42:24;;;;;;;;;2.00;1.00;;;;;;;;5068940;27;45317;-73
2022/06/11 11:44:50;;;;;;;;;2.33;1.00;;;;;;;;5068061;28;45415;-73
2022/06/11 11:47:18;;;;;;;;;3.67;2.00;;;;;;;;5065008;27;45419;-73
2022/06/11 11:49:49;;;;;;;;;2.00;1.67;;;;;;;;5070755;27;46266;-73
2022/06/11 11:52:15;;;;;;;;;1.67;1.67;;;;;;;;5069260;28;45363;-73
2022/06/11 11:54:53;;;;;;;;;2.67;2.00;;;;;;;;5066931;28;45505;-73
2022/06/11 11:57:20;;;;;;;;;1.00;1.00;;;;;;;;5070141;28;45312;-73
2022/06/11 12:00:03;;;;;;;;;2.00;2.00;;;;;;;;5069951;27;47211;-73
2022/06/11 12:02:47;;;;;;;;;4.00;3.00;;;;;;;;5062448;28;45382;-73
2022/06/11 12:05:21;;;;;;;;;2.67;2.33;;;;;;;;5064936;27;45424;-73
2022/06/11 12:07:48;;;;;;;;;3.00;2.00;;;;;;;;5065084;28;45393;-73
2022/06/11 12:10:31;;;;;;;;;2.33;2.00;;;;;;;;5069383;27;46224;-73
2022/06/11 12:12:57;;;;;;;;;3.00;2.00;;;;;;;;5068517;28;45468;-73
2022/06/11 12:15:22;;;;;;;;;2.00;0.00;;;;;;;;5066595;28;45524;-73
2022/06/11 12:17:50;;;;;;;;;1.33;0.00;;;;;;;;5069507;28;45439;-73
2022/06/11 12:20:18;;;;;;;;;1.33;1.33;;;;;;;;5065050;28;45370;-72
2022/06/11 12:22:47;;;;;;;;;3.00;1.00;;;;;;;;5065259;28;45461;-73
2022/06/11 12:25:26;;;;;;;;;2.00;2.00;;;;;;;;5057127;28;45549;-73
2022/06/11 12:27:52;;;;;;;;;2.33;2.00;;;;;;;;5073878;28;45480;-72
2022/06/11 12:30:22;;;;;;;;;1.00;1.00;;;;;;;;5070759;27;46314;-73
2022/06/11 12:32:48;;;;;;;;;1.67;1.67;;;;;;;;5070782;28;45429;-73
2022/06/11 12:35:14;;;;;;;;;2.00;2.00;;;;;;;;5068524;27;45410;-73
2022/06/11 12:37:46;;;;;;;;;3.00;1.33;;;;;;;;5066918;27;45420;-73
2022/06/11 12:40:13;;;;;;;;;2.00;2.00;;;;;;;;5064061;28;45559;-73
2022/06/11 12:42:41;;;;;;;;;1.67;0.33;;;;;;;;5071075;27;45508;-73
2022/06/11 12:45:24;;;;;;;;;1.67;1.67;;;;;;;;5071534;28;45290;-73
2022/06/11 12:48:08;;;;;;;;;1.67;1.67;;;;;;;;5070991;28;45545;-72
2022/06/11 12:50:45;;;;;;;;;1.00;1.00;;;;;;;;5069663;28;46022;-72
2022/06/11 12:53:29;;;;;;;;;0.00;0.00;;;;;;;;5068608;28;45336;-72
2022/06/11 12:56:15;;;;;;;;;1.33;1.33;;;;;;;;5070736;27;45411;-72
2022/06/11 12:58:46;;;;;;;;;1.00;1.00;;;;;;;;5068935;28;45521;-72
2022/06/11 13:01:11;;;;;;;;;2.00;2.00;;;;;;;;5059912;28;46327;-72
2022/06/11 13:03:55;;;;;;;;;1.25;1.25;;;;;;;;5073935;28;45390;-73
2022/06/11 13:06:35;;;;;;;;;2.00;2.00;;;;;;;;5070673;27;45512;-78
2022/06/11 13:09:21;;;;;;;;;1.67;1.67;;;;;;;;5072346;28;45414;-75
2022/06/11 13:11:56;;;;;;;;;2.00;2.00;;;;;;;;5070762;28;45468;-81
2022/06/11 13:14:33;;;;;;;;;1.33;1.33;;;;;;;;5070601;28;45338;-76
2022/06/11 13:17:07;;;;;;;;;2.00;2.00;;;;;;;;5070513;28;45339;-77
2022/06/11 13:19:38;;;;;;;;;1.00;1.00;;;;;;;;5069874;28;45249;-77
2022/06/11 13:22:12;;;;;;;;;1.33;1.33;;;;;;;;5069969;27;47194;-76
2022/06/11 13:24:47;;;;;;;;;1.00;1.00;;;;;;;;5068776;28;45499;-75
2022/06/11 13:27:12;;;;;;;;;1.00;1.00;;;;;;;;5070466;28;45431;-76
2022/06/11 13:30:00;;;;;;;;;1.33;1.33;;;;;;;;5069275;27;45367;-76
2022/06/11 13:32:36;;;;;;;;;1.67;1.67;;;;;;;;5067075;28;45367;-76
2022/06/11 13:35:07;;;;;;;;;1.00;1.00;;;;;;;;5070248;28;45342;-76
2022/06/11 13:37:32;;;;;;;;;3.00;2.00;;;;;;;;5070825;28;45489;-76
2022/06/11 13:40:06;;;;;;;;;1.00;1.00;;;;;;;;5062515;28;45451;-75
2022/06/11 13:42:51;;;;;;;;;1.00;1.00;;;;;;;;5069651;28;45374;-75
2022/06/11 13:45:35;;;;;;;;;3.67;2.00;;;;;;;;5073232;28;45569;-75
2022/06/11 13:48:09;;;;;;;;;2.00;2.00;;;;;;;;5071755;27;45295;-75
2022/06/11 13:50:43;;;;;;;;;2.00;2.00;;;;;;;;5069204;28;45470;-75
2022/06/11 13:55:53;;;;;;;;;1.67;1.67;;;;;;;;5069748;28;45544;-75
2022/06/11 13:58:37;;;;;;;;;2.67;2.00;;;;;;;;5068576;28;45377;-76
2022/06/11 14:01:20;;;;;;;;;3.00;1.00;;;;;;;;5073049;27;45591;-75
2022/06/11 14:03:45;;;;;;;;;1.33;1.00;;;;;;;;5069296;28;46406;-76
2022/06/11 14:06:13;;;;;;;;;2.00;2.00;;;;;;;;5069656;28;45400;-75
2022/06/11 14:08:40;;;;;;;;;1.33;0.67;;;;;;;;5071836;28;45300;-75
2022/06/11 14:11:14;;;;;;;;;1.00;1.00;;;;;;;;5067184;27;45572;-75
2022/06/11 14:13:57;;;;;;;;;2.33;1.00;;;;;;;;5069529;28;45410;-75
2022/06/11 14:16:31;;;;;;;;;3.00;1.00;;;;;;;;5070528;28;45467;-75
2022/06/11 14:18:57;;;;;;;;;3.33;2.00;;;;;;;;5063754;28;45440;-76
2022/06/11 14:21:38;;;;;;;;;1.67;1.00;;;;;;;;5060642;27;45377;-76
2022/06/11 14:24:04;;;;;;;;;2.67;1.67;;;;;;;;5072470;28;47106;-76
2022/06/11 14:26:43;;;;;;;;;2.00;1.00;;;;;;;;5070128;28;45482;-75
2022/06/11 14:29:15;;;;;;;;;1.00;1.00;;;;;;;;5066514;28;45462;-76
2022/06/11 14:31:59;;;;;;;;;2.00;1.33;;;;;;;;5068673;27;45555;-75
2022/06/11 14:34:30;;;;;;;;;1.00;1.00;;;;;;;;5069651;27;45597;-76
2022/06/11 14:37:04;;;;;;;;;1.67;1.67;;;;;;;;5071481;28;45763;-75
2022/06/11 14:39:34;;;;;;;;;2.67;1.67;;;;;;;;5058319;27;45214;-75
2022/06/11 14:42:08;;;;;;;;;0.67;0.67;;;;;;;;5071580;28;45407;-75
2022/06/11 14:44:33;;;;;;;;;1.00;1.00;;;;;;;;5068824;28;47865;-76
2022/06/11 14:47:00;;;;;;;;;3.00;2.00;;;;;;;;5068382;28;46112;-76
2022/06/11 14:49:28;;;;;;;;;0.67;0.67;;;;;;;;5069066;28;45520;-74
2022/06/11 14:52:03;;;;;;;;;1.00;1.00;;;;;;;;5070199;28;45475;-74
2022/06/11 14:54:32;;;;;;;;;1.33;1.00;;;;;;;;5067494;27;45710;-74
2022/06/11 14:56:57;;;;;;;;;2.00;1.00;;;;;;;;5068363;28;45464;-75
2022/06/11 14:59:37;;;;;;;;;2.33;2.00;;;;;;;;5066018;28;45555;-74
2022/06/11 15:02:14;;;;;;;;;1.67;1.67;;;;;;;;5068664;28;45417;-74